sensor_id;sensor_type;location;lat;lon;timestamp;pressure;altitude;pressure_sealevel;temperature;humidity
48636;BME280;34429;52.332;5.614;2022-07-23T00:01:17;101923.53;;;15.04;100.00
48636;BME280;34429;52.332;5.614;2022-07-23T00:03:45;101923.78;;;14.91;100.00
48636;BME280;34429;52.332;5.614;2022-07-23T00:06:13;101919.06;;;14.83;100.00
48636;BME280;34429;52.332;5.614;2022-07-23T00:08:42;101920.75;;;14.75;100.00
48636;BME280;34429;52.332;5.614;2022-07-23T00:11:10;101920.31;;;14.69;100.00
48636;BME280;34429;52.332;5.614;2022-07-23T00:13:38;101928.59;;;14.78;100.00
48636;BME280;34429;52.332;5.614;2022-07-23T00:16:07;101913.22;;;14.78;100.00
48636;BME280;34429;52.332;5.614;2022-07-23T00:18:39;101921.75;;;14.74;100.00
48636;BME280;34429;52.332;5.614;2022-07-23T00:21:07;101910.19;;;14.71;100.00
48636;BME280;34429;52.332;5.614;2022-07-23T00:23:36;101910.34;;;14.70;100.00
48636;BME280;34429;52.332;5.614;2022-07-23T00:26:04;101909.22;;;14.73;100.00
48636;BME280;34429;52.332;5.614;2022-07-23T00:28:33;101900.63;;;14.67;100.00
48636;BME280;34429;52.332;5.614;2022-07-23T00:31:01;101899.16;;;14.63;100.00
48636;BME280;34429;52.332;5.614;2022-07-23T00:33:30;101904.84;;;14.60;100.00
48636;BME280;34429;52.332;5.614;2022-07-23T00:36:02;101907.69;;;14.59;100.00
48636;BME280;34429;52.332;5.614;2022-07-23T00:38:30;101899.84;;;14.55;100.00
48636;BME280;34429;52.332;5.614;2022-07-23T00:40:58;101896.28;;;14.55;100.00
48636;BME280;34429;52.332;5.614;2022-07-23T00:43:27;101887.41;;;14.53;100.00
48636;BME280;34429;52.332;5.614;2022-07-23T00:45:55;101895.09;;;14.48;100.00
48636;BME280;34429;52.332;5.614;2022-07-23T00:48:23;101887.13;;;14.46;100.00
48636;BME280;34429;52.332;5.614;2022-07-23T00:50:52;101895.66;;;14.42;100.00
48636;BME280;34429;52.332;5.614;2022-07-23T00:53:23;101891.22;;;14.41;100.00
48636;BME280;34429;52.332;5.614;2022-07-23T00:55:51;101894.91;;;14.40;100.00
48636;BME280;34429;52.332;5.614;2022-07-23T00:58:21;101892.63;;;14.35;100.00
48636;BME280;34429;52.332;5.614;2022-07-23T01:00:49;101889.34;;;14.31;100.00
48636;BME280;34429;52.332;5.614;2022-07-23T01:03:17;101888.47;;;14.31;100.00
48636;BME280;34429;52.332;5.614;2022-07-23T01:05:46;101883.03;;;14.31;100.00
48636;BME280;34429;52.332;5.614;2022-07-23T01:08:14;101880.47;;;14.29;100.00
48636;BME280;34429;52.332;5.614;2022-07-23T01:10:46;101879.06;;;14.25;100.00
48636;BME280;34429;52.332;5.614;2022-07-23T01:13:15;101880.31;;;14.21;100.00
48636;BME280;34429;52.332;5.614;2022-07-23T01:15:43;101871.41;;;14.09;100.00
48636;BME280;34429;52.332;5.614;2022-07-23T01:18:11;101873.50;;;14.06;100.00
48636;BME280;34429;52.332;5.614;2022-07-23T01:20:40;101872.19;;;14.00;100.00
48636;BME280;34429;52.332;5.614;2022-07-23T01:23:11;101875.16;;;13.97;100.00
48636;BME280;34429;52.332;5.614;2022-07-23T01:25:47;101866.47;;;13.93;100.00
48636;BME280;34429;52.332;5.614;2022-07-23T01:28:15;101866.34;;;13.95;100.00
48636;BME280;34429;52.332;5.614;2022-07-23T01:30:44;101876.31;;;13.94;100.00
48636;BME280;34429;52.332;5.614;2022-07-23T01:33:12;101877.56;;;13.90;100.00
48636;BME280;34429;52.332;5.614;2022-07-23T01:35:41;101873.41;;;13.86;100.00
48636;BME280;34429;52.332;5.614;2022-07-23T01:38:12;101874.94;;;13.79;100.00
48636;BME280;34429;52.332;5.614;2022-07-23T01:40:40;101874.22;;;13.77;100.00
48636;BME280;34429;52.332;5.614;2022-07-23T01:43:08;101863.38;;;13.77;100.00
48636;BME280;34429;52.332;5.614;2022-07-23T01:45:37;101866.94;;;13.77;100.00
48636;BME280;34429;52.332;5.614;2022-07-23T01:48:06;101872.50;;;13.76;100.00
48636;BME280;34429;52.332;5.614;2022-07-23T01:50:38;101875.31;;;13.74;100.00
48636;BME280;34429;52.332;5.614;2022-07-23T01:53:06;101871.28;;;13.69;100.00
48636;BME280;34429;52.332;5.614;2022-07-23T01:55:37;101868.50;;;13.59;100.00
48636;BME280;34429;52.332;5.614;2022-07-23T01:58:05;101870.38;;;13.58;100.00
48636;BME280;34429;52.332;5.614;2022-07-23T02:00:34;101868.28;;;13.62;100.00
48636;BME280;34429;52.332;5.614;2022-07-23T02:03:03;101874.41;;;13.64;100.00
48636;BME280;34429;52.332;5.614;2022-07-23T02:05:31;101871.22;;;13.59;100.00
48636;BME280;34429;52.332;5.614;2022-07-23T02:08:00;101854.66;;;13.52;100.00
48636;BME280;34429;52.332;5.614;2022-07-23T02:10:29;101860.53;;;13.57;100.00
48636;BME280;34429;52.332;5.614;2022-07-23T02:12:59;101862.38;;;13.57;100.00
48636;BME280;34429;52.332;5.614;2022-07-23T02:15:28;101858.44;;;13.61;100.00
48636;BME280;34429;52.332;5.614;2022-07-23T02:17:56;101856.00;;;13.58;100.00
48636;BME280;34429;52.332;5.614;2022-07-23T02:20:25;101862.78;;;13.52;100.00
48636;BME280;34429;52.332;5.614;2022-07-23T02:22:53;101852.22;;;13.49;100.00
48636;BME280;34429;52.332;5.614;2022-07-23T02:25:21;101847.09;;;13.46;100.00
48636;BME280;34429;52.332;5.614;2022-07-23T02:27:50;101841.69;;;13.46;100.00
48636;BME280;34429;52.332;5.614;2022-07-23T02:30:21;101857.69;;;13.38;100.00
48636;BME280;34429;52.332;5.614;2022-07-23T02:32:49;101863.22;;;13.36;100.00
48636;BME280;34429;52.332;5.614;2022-07-23T02:35:17;101852.75;;;13.31;100.00
48636;BME280;34429;52.332;5.614;2022-07-23T02:37:45;101852.06;;;13.29;100.00
48636;BME280;34429;52.332;5.614;2022-07-23T02:40:14;101860.03;;;13.31;100.00
48636;BME280;34429;52.332;5.614;2022-07-23T02:42:42;101873.56;;;13.31;100.00
48636;BME280;34429;52.332;5.614;2022-07-23T02:45:11;101863.97;;;13.27;100.00
48636;BME280;34429;52.332;5.614;2022-07-23T02:47:42;101869.00;;;13.31;100.00
48636;BME280;34429;52.332;5.614;2022-07-23T02:50:10;101869.97;;;13.30;100.00
48636;BME280;34429;52.332;5.614;2022-07-23T02:52:39;101872.41;;;13.33;100.00
48636;BME280;34429;52.332;5.614;2022-07-23T02:55:07;101869.59;;;13.35;100.00
48636;BME280;34429;52.332;5.614;2022-07-23T02:57:36;101872.66;;;13.30;100.00
48636;BME280;34429;52.332;5.614;2022-07-23T03:00:07;101878.09;;;13.30;100.00
48636;BME280;34429;52.332;5.614;2022-07-23T03:02:35;101880.91;;;13.29;100.00
48636;BME280;34429;52.332;5.614;2022-07-23T03:05:07;101882.50;;;13.31;100.00
48636;BME280;34429;52.332;5.614;2022-07-23T03:07:35;101888.41;;;13.37;100.00
48636;BME280;34429;52.332;5.614;2022-07-23T03:10:04;101894.94;;;13.34;100.00
48636;BME280;34429;52.332;5.614;2022-07-23T03:12:32;101898.72;;;13.31;100.00
48636;BME280;34429;52.332;5.614;2022-07-23T03:15:00;101888.75;;;13.32;100.00
48636;BME280;34429;52.332;5.614;2022-07-23T03:17:29;101887.06;;;13.31;100.00
48636;BME280;34429;52.332;5.614;2022-07-23T03:19:57;101890.88;;;13.28;100.00
48636;BME280;34429;52.332;5.614;2022-07-23T03:22:28;101885.47;;;13.28;100.00
48636;BME280;34429;52.332;5.614;2022-07-23T03:24:56;101885.72;;;13.25;100.00
48636;BME280;34429;52.332;5.614;2022-07-23T03:27:26;101890.25;;;13.25;100.00
48636;BME280;34429;52.332;5.614;2022-07-23T03:29:57;101894.81;;;13.24;100.00
48636;BME280;34429;52.332;5.614;2022-07-23T03:32:26;101910.25;;;13.33;100.00
48636;BME280;34429;52.332;5.614;2022-07-23T03:34:54;101909.53;;;13.31;100.00
48636;BME280;34429;52.332;5.614;2022-07-23T03:37:23;101904.63;;;13.37;100.00
48636;BME280;34429;52.332;5.614;2022-07-23T03:39:54;101907.09;;;13.40;100.00
48636;BME280;34429;52.332;5.614;2022-07-23T03:42:22;101895.28;;;13.41;100.00
48636;BME280;34429;52.332;5.614;2022-07-23T03:44:51;101898.47;;;13.46;100.00
48636;BME280;34429;52.332;5.614;2022-07-23T03:47:19;101901.88;;;13.48;100.00
48636;BME280;34429;52.332;5.614;2022-07-23T03:49:47;101898.59;;;13.44;100.00
48636;BME280;34429;52.332;5.614;2022-07-23T03:52:16;101899.31;;;13.46;100.00
48636;BME280;34429;52.332;5.614;2022-07-23T03:54:44;101899.66;;;13.53;100.00
48636;BME280;34429;52.332;5.614;2022-07-23T03:57:15;101893.50;;;13.51;100.00
48636;BME280;34429;52.332;5.614;2022-07-23T03:59:43;101890.53;;;13.54;100.00
48636;BME280;34429;52.332;5.614;2022-07-23T04:02:12;101884.88;;;13.57;100.00
48636;BME280;34429;52.332;5.614;2022-07-23T04:04:40;101883.88;;;13.58;100.00
48636;BME280;34429;52.332;5.614;2022-07-23T04:07:08;101876.88;;;13.56;100.00
48636;BME280;34429;52.332;5.614;2022-07-23T04:09:36;101876.53;;;13.60;100.00
48636;BME280;34429;52.332;5.614;2022-07-23T04:12:06;101874.41;;;13.64;100.00
48636;BME280;34429;52.332;5.614;2022-07-23T04:14:37;101868.84;;;13.65;100.00
48636;BME280;34429;52.332;5.614;2022-07-23T04:17:05;101867.41;;;13.61;100.00
48636;BME280;34429;52.332;5.614;2022-07-23T04:19:34;101869.25;;;13.61;100.00
48636;BME280;34429;52.332;5.614;2022-07-23T04:22:06;101865.69;;;13.60;100.00
48636;BME280;34429;52.332;5.614;2022-07-23T04:24:35;101867.78;;;13.57;100.00
48636;BME280;34429;52.332;5.614;2022-07-23T04:27:04;101881.44;;;13.55;100.00
48636;BME280;34429;52.332;5.614;2022-07-23T04:29:32;101870.91;;;13.52;100.00
48636;BME280;34429;52.332;5.614;2022-07-23T04:32:04;101874.97;;;13.46;100.00
48636;BME280;34429;52.332;5.614;2022-07-23T04:34:32;101870.06;;;13.52;100.00
48636;BME280;34429;52.332;5.614;2022-07-23T04:37:01;101878.53;;;13.47;100.00
48636;BME280;34429;52.332;5.614;2022-07-23T04:39:29;101884.19;;;13.44;100.00
48636;BME280;34429;52.332;5.614;2022-07-23T04:41:57;101886.44;;;13.39;100.00
48636;BME280;34429;52.332;5.614;2022-07-23T04:44:25;101897.47;;;13.47;100.00
48636;BME280;34429;52.332;5.614;2022-07-23T04:46:53;101885.41;;;13.51;100.00
48636;BME280;34429;52.332;5.614;2022-07-23T04:49:24;101889.56;;;13.55;100.00
48636;BME280;34429;52.332;5.614;2022-07-23T04:51:53;101885.22;;;13.64;100.00
48636;BME280;34429;52.332;5.614;2022-07-23T04:54:21;101890.63;;;13.64;100.00
48636;BME280;34429;52.332;5.614;2022-07-23T04:56:49;101890.75;;;13.62;100.00
48636;BME280;34429;52.332;5.614;2022-07-23T04:59:17;101896.50;;;13.69;100.00
48636;BME280;34429;52.332;5.614;2022-07-23T05:01:46;101888.84;;;13.74;100.00
48636;BME280;34429;52.332;5.614;2022-07-23T05:04:14;101881.09;;;13.81;100.00
48636;BME280;34429;52.332;5.614;2022-07-23T05:06:45;101888.41;;;13.90;100.00
48636;BME280;34429;52.332;5.614;2022-07-23T05:09:13;101885.59;;;14.01;100.00
48636;BME280;34429;52.332;5.614;2022-07-23T05:11:41;101895.91;;;14.08;100.00
48636;BME280;34429;52.332;5.614;2022-07-23T05:14:10;101902.84;;;14.00;100.00
48636;BME280;34429;52.332;5.614;2022-07-23T05:16:38;101897.75;;;14.07;100.00
48636;BME280;34429;52.332;5.614;2022-07-23T05:19:07;101910.38;;;14.18;100.00
48636;BME280;34429;52.332;5.614;2022-07-23T05:21:35;101907.81;;;14.26;100.00
48636;BME280;34429;52.332;5.614;2022-07-23T05:24:06;101914.28;;;14.35;100.00
48636;BME280;34429;52.332;5.614;2022-07-23T05:26:35;101918.31;;;14.41;100.00
48636;BME280;34429;52.332;5.614;2022-07-23T05:29:03;101920.19;;;14.50;100.00
48636;BME280;34429;52.332;5.614;2022-07-23T05:31:31;101918.28;;;14.62;100.00
48636;BME280;34429;52.332;5.614;2022-07-23T05:33:59;101910.00;;;14.63;100.00
48636;BME280;34429;52.332;5.614;2022-07-23T05:36:28;101908.59;;;14.69;100.00
48636;BME280;34429;52.332;5.614;2022-07-23T05:38:56;101915.88;;;14.68;100.00
48636;BME280;34429;52.332;5.614;2022-07-23T05:41:27;101916.03;;;14.67;100.00
48636;BME280;34429;52.332;5.614;2022-07-23T05:43:55;101922.47;;;14.76;100.00
48636;BME280;34429;52.332;5.614;2022-07-23T05:46:24;101920.19;;;14.81;100.00
48636;BME280;34429;52.332;5.614;2022-07-23T05:48:52;101925.78;;;14.89;100.00
48636;BME280;34429;52.332;5.614;2022-07-23T05:51:20;101924.69;;;15.01;100.00
48636;BME280;34429;52.332;5.614;2022-07-23T05:53:49;101928.13;;;15.03;100.00
48636;BME280;34429;52.332;5.614;2022-07-23T05:56:18;101930.69;;;15.15;100.00
48636;BME280;34429;52.332;5.614;2022-07-23T05:58:49;101926.00;;;15.17;100.00
48636;BME280;34429;52.332;5.614;2022-07-23T06:01:17;101930.16;;;15.21;100.00
48636;BME280;34429;52.332;5.614;2022-07-23T06:03:46;101922.16;;;15.29;100.00
48636;BME280;34429;52.332;5.614;2022-07-23T06:06:14;101926.59;;;15.50;100.00
48636;BME280;34429;52.332;5.614;2022-07-23T06:08:42;101924.75;;;15.60;100.00
48636;BME280;34429;52.332;5.614;2022-07-23T06:11:11;101931.47;;;15.66;100.00
48636;BME280;34429;52.332;5.614;2022-07-23T06:13:39;101926.47;;;15.81;100.00
48636;BME280;34429;52.332;5.614;2022-07-23T06:16:10;101935.63;;;15.80;100.00
48636;BME280;34429;52.332;5.614;2022-07-23T06:18:38;101931.91;;;15.81;100.00
48636;BME280;34429;52.332;5.614;2022-07-23T06:21:08;101926.00;;;16.15;100.00
48636;BME280;34429;52.332;5.614;2022-07-23T06:23:37;101920.03;;;16.49;100.00
48636;BME280;34429;52.332;5.614;2022-07-23T06:26:05;101921.13;;;16.56;100.00
48636;BME280;34429;52.332;5.614;2022-07-23T06:28:34;101925.53;;;16.67;100.00
48636;BME280;34429;52.332;5.614;2022-07-23T06:31:02;101923.88;;;16.84;100.00
48636;BME280;34429;52.332;5.614;2022-07-23T06:33:33;101922.47;;;17.07;100.00
48636;BME280;34429;52.332;5.614;2022-07-23T06:36:01;101921.00;;;16.95;100.00
48636;BME280;34429;52.332;5.614;2022-07-23T06:38:30;101930.28;;;17.20;100.00
48636;BME280;34429;52.332;5.614;2022-07-23T06:40:58;101919.50;;;17.46;100.00
48636;BME280;34429;52.332;5.614;2022-07-23T06:43:26;101917.59;;;17.65;100.00
48636;BME280;34429;52.332;5.614;2022-07-23T06:45:54;101916.50;;;17.94;100.00
48636;BME280;34429;52.332;5.614;2022-07-23T06:48:23;101917.00;;;18.15;100.00
48636;BME280;34429;52.332;5.614;2022-07-23T06:50:53;101911.97;;;18.02;100.00
48636;BME280;34429;52.332;5.614;2022-07-23T06:53:22;101917.69;;;18.17;100.00
48636;BME280;34429;52.332;5.614;2022-07-23T06:55:50;101917.16;;;18.14;100.00
48636;BME280;34429;52.332;5.614;2022-07-23T06:58:18;101918.03;;;18.49;100.00
48636;BME280;34429;52.332;5.614;2022-07-23T07:00:47;101929.06;;;18.73;100.00
48636;BME280;34429;52.332;5.614;2022-07-23T07:03:16;101930.75;;;19.09;100.00
48636;BME280;34429;52.332;5.614;2022-07-23T07:05:45;101933.22;;;19.45;100.00
48636;BME280;34429;52.332;5.614;2022-07-23T07:08:17;101933.19;;;19.20;100.00
48636;BME280;34429;52.332;5.614;2022-07-23T07:10:45;101935.91;;;19.20;100.00
48636;BME280;34429;52.332;5.614;2022-07-23T07:13:14;101934.78;;;19.64;100.00
48636;BME280;34429;52.332;5.614;2022-07-23T07:15:42;101932.22;;;19.54;100.00
48636;BME280;34429;52.332;5.614;2022-07-23T07:18:10;101933.88;;;19.31;100.00
48636;BME280;34429;52.332;5.614;2022-07-23T07:20:39;101932.72;;;19.66;100.00
48636;BME280;34429;52.332;5.614;2022-07-23T07:23:07;101926.44;;;19.90;100.00
48636;BME280;34429;52.332;5.614;2022-07-23T07:25:38;101921.00;;;20.55;100.00
48636;BME280;34429;52.332;5.614;2022-07-23T07:28:06;101926.50;;;21.03;100.00
48636;BME280;34429;52.332;5.614;2022-07-23T07:30:34;101932.81;;;21.03;100.00
48636;BME280;34429;52.332;5.614;2022-07-23T07:33:03;101932.00;;;20.86;100.00
48636;BME280;34429;52.332;5.614;2022-07-23T07:35:31;101933.19;;;20.44;100.00
48636;BME280;34429;52.332;5.614;2022-07-23T07:38:00;101942.09;;;20.29;100.00
48636;BME280;34429;52.332;5.614;2022-07-23T07:40:28;101949.31;;;20.14;100.00
48636;BME280;34429;52.332;5.614;2022-07-23T07:42:59;101952.75;;;19.83;100.00
48636;BME280;34429;52.332;5.614;2022-07-23T07:45:29;101963.63;;;19.67;100.00
48636;BME280;34429;52.332;5.614;2022-07-23T07:47:57;101955.47;;;19.91;100.00
48636;BME280;34429;52.332;5.614;2022-07-23T07:50:25;101963.44;;;20.34;100.00
48636;BME280;34429;52.332;5.614;2022-07-23T07:52:54;101968.59;;;20.29;100.00
48636;BME280;34429;52.332;5.614;2022-07-23T07:55:22;101960.03;;;20.32;100.00
48636;BME280;34429;52.332;5.614;2022-07-23T07:57:50;101964.00;;;20.13;100.00
48636;BME280;34429;52.332;5.614;2022-07-23T08:00:21;101972.03;;;19.98;100.00
48636;BME280;34429;52.332;5.614;2022-07-23T08:02:51;101972.88;;;20.23;100.00
48636;BME280;34429;52.332;5.614;2022-07-23T08:05:28;101967.84;;;20.52;100.00
48636;BME280;34429;52.332;5.614;2022-07-23T08:07:58;101971.75;;;20.74;100.00
48636;BME280;34429;52.332;5.614;2022-07-23T08:10:27;101972.94;;;20.71;100.00
48636;BME280;34429;52.332;5.614;2022-07-23T08:12:57;101977.78;;;20.44;100.00
48636;BME280;34429;52.332;5.614;2022-07-23T08:15:29;101981.97;;;20.80;100.00
48636;BME280;34429;52.332;5.614;2022-07-23T08:17:59;101979.25;;;20.80;100.00
48636;BME280;34429;52.332;5.614;2022-07-23T08:20:27;101969.34;;;20.62;100.00
48636;BME280;34429;52.332;5.614;2022-07-23T08:22:57;101976.88;;;20.77;100.00
48636;BME280;34429;52.332;5.614;2022-07-23T08:25:28;101982.88;;;20.56;100.00
48636;BME280;34429;52.332;5.614;2022-07-23T08:27:57;101981.88;;;20.57;100.00
48636;BME280;34429;52.332;5.614;2022-07-23T08:30:29;101975.78;;;20.94;100.00
48636;BME280;34429;52.332;5.614;2022-07-23T08:32:59;101971.13;;;21.03;100.00
48636;BME280;34429;52.332;5.614;2022-07-23T08:35:29;101970.31;;;20.86;100.00
48636;BME280;34429;52.332;5.614;2022-07-23T08:37:59;101973.88;;;20.95;100.00
48636;BME280;34429;52.332;5.614;2022-07-23T08:40:29;101977.19;;;21.22;100.00
48636;BME280;34429;52.332;5.614;2022-07-23T08:42:58;101976.66;;;21.26;100.00
48636;BME280;34429;52.332;5.614;2022-07-23T08:45:30;101980.28;;;21.50;100.00
48636;BME280;34429;52.332;5.614;2022-07-23T08:47:58;101979.94;;;21.53;100.00
48636;BME280;34429;52.332;5.614;2022-07-23T08:50:26;101978.41;;;21.50;100.00
48636;BME280;34429;52.332;5.614;2022-07-23T08:52:55;101980.31;;;21.42;100.00
48636;BME280;34429;52.332;5.614;2022-07-23T08:55:24;101978.56;;;21.49;100.00
48636;BME280;34429;52.332;5.614;2022-07-23T08:57:53;101984.78;;;21.89;100.00
48636;BME280;34429;52.332;5.614;2022-07-23T09:00:22;101985.22;;;22.01;100.00
48636;BME280;34429;52.332;5.614;2022-07-23T09:02:53;101987.66;;;21.73;100.00
48636;BME280;34429;52.332;5.614;2022-07-23T09:05:21;101985.59;;;21.51;100.00
48636;BME280;34429;52.332;5.614;2022-07-23T09:08:05;101978.19;;;21.60;100.00
48636;BME280;34429;52.332;5.614;2022-07-23T09:10:45;101974.91;;;22.26;100.00
48636;BME280;34429;52.332;5.614;2022-07-23T09:13:33;101971.09;;;21.89;100.00
48636;BME280;34429;52.332;5.614;2022-07-23T09:16:04;101970.25;;;21.88;100.00
48636;BME280;34429;52.332;5.614;2022-07-23T09:18:38;101978.38;;;21.59;100.00
48636;BME280;34429;52.332;5.614;2022-07-23T09:21:21;101967.31;;;21.90;100.00
48636;BME280;34429;52.332;5.614;2022-07-23T09:23:52;101983.31;;;22.25;100.00
48636;BME280;34429;52.332;5.614;2022-07-23T09:26:30;101981.69;;;21.92;100.00
48636;BME280;34429;52.332;5.614;2022-07-23T09:29:11;101979.44;;;21.73;100.00
48636;BME280;34429;52.332;5.614;2022-07-23T09:31:48;101992.03;;;22.05;100.00
48636;BME280;34429;52.332;5.614;2022-07-23T09:34:22;101982.00;;;21.97;100.00
48636;BME280;34429;52.332;5.614;2022-07-23T09:36:51;101984.91;;;22.19;100.00
48636;BME280;34429;52.332;5.614;2022-07-23T09:39:27;101977.13;;;22.75;100.00
48636;BME280;34429;52.332;5.614;2022-07-23T09:41:56;101980.50;;;23.07;100.00
48636;BME280;34429;52.332;5.614;2022-07-23T09:44:25;101975.28;;;23.27;100.00
48636;BME280;34429;52.332;5.614;2022-07-23T09:46:58;101979.53;;;23.30;100.00
48636;BME280;34429;52.332;5.614;2022-07-23T09:49:29;101986.50;;;22.51;100.00
48636;BME280;34429;52.332;5.614;2022-07-23T09:51:59;101984.31;;;22.77;100.00
48636;BME280;34429;52.332;5.614;2022-07-23T09:54:33;101990.66;;;22.62;100.00
48636;BME280;34429;52.332;5.614;2022-07-23T09:57:04;101987.59;;;22.42;100.00
48636;BME280;34429;52.332;5.614;2022-07-23T09:59:37;101982.69;;;23.12;100.00
48636;BME280;34429;52.332;5.614;2022-07-23T10:02:08;101985.91;;;23.01;100.00
48636;BME280;34429;52.332;5.614;2022-07-23T10:04:39;101987.69;;;23.08;100.00
48636;BME280;34429;52.332;5.614;2022-07-23T10:07:09;101982.41;;;22.92;100.00
48636;BME280;34429;52.332;5.614;2022-07-23T10:09:39;101988.97;;;22.91;100.00
48636;BME280;34429;52.332;5.614;2022-07-23T10:12:10;101997.47;;;22.81;100.00
48636;BME280;34429;52.332;5.614;2022-07-23T10:14:44;101996.63;;;22.81;100.00
48636;BME280;34429;52.332;5.614;2022-07-23T10:17:12;101983.09;;;22.94;100.00
48636;BME280;34429;52.332;5.614;2022-07-23T10:19:43;101981.63;;;23.28;98.63
48636;BME280;34429;52.332;5.614;2022-07-23T10:22:13;101980.41;;;23.01;100.00
48636;BME280;34429;52.332;5.614;2022-07-23T10:24:51;101982.03;;;22.80;100.00
48636;BME280;34429;52.332;5.614;2022-07-23T10:27:34;101984.81;;;23.10;96.86
48636;BME280;34429;52.332;5.614;2022-07-23T10:30:09;101975.91;;;22.78;100.00
48636;BME280;34429;52.332;5.614;2022-07-23T10:32:48;101979.38;;;23.53;100.00
48636;BME280;34429;52.332;5.614;2022-07-23T10:35:25;101979.69;;;23.43;100.00
48636;BME280;34429;52.332;5.614;2022-07-23T10:37:56;101980.75;;;23.42;100.00
48636;BME280;34429;52.332;5.614;2022-07-23T10:40:30;101974.47;;;22.97;100.00
48636;BME280;34429;52.332;5.614;2022-07-23T10:43:00;101982.41;;;23.22;100.00
48636;BME280;34429;52.332;5.614;2022-07-23T10:45:31;101985.34;;;23.20;100.00
48636;BME280;34429;52.332;5.614;2022-07-23T10:48:13;101977.81;;;23.29;100.00
48636;BME280;34429;52.332;5.614;2022-07-23T10:51:10;101982.69;;;23.70;100.00
48636;BME280;34429;52.332;5.614;2022-07-23T10:54:03;101977.84;;;23.87;100.00
48636;BME280;34429;52.332;5.614;2022-07-23T11:02:33;101975.31;;;24.71;100.00
48636;BME280;34429;52.332;5.614;2022-07-23T11:05:04;101974.03;;;24.73;88.13
48636;BME280;34429;52.332;5.614;2022-07-23T11:07:37;101979.03;;;24.28;100.00
48636;BME280;34429;52.332;5.614;2022-07-23T11:10:34;101976.03;;;24.01;99.72
48636;BME280;34429;52.332;5.614;2022-07-23T11:16:24;101966.75;;;24.02;100.00
48636;BME280;34429;52.332;5.614;2022-07-23T11:19:04;101971.84;;;24.34;100.00
48636;BME280;34429;52.332;5.614;2022-07-23T11:21:49;101974.44;;;24.70;94.71
48636;BME280;34429;52.332;5.614;2022-07-23T11:24:22;101971.41;;;24.30;93.03
48636;BME280;34429;52.332;5.614;2022-07-23T11:26:59;101972.75;;;24.69;99.82
48636;BME280;34429;52.332;5.614;2022-07-23T11:29:38;101965.03;;;24.93;82.83
48636;BME280;34429;52.332;5.614;2022-07-23T11:32:07;101972.47;;;24.99;84.24
48636;BME280;34429;52.332;5.614;2022-07-23T11:34:39;101974.28;;;24.78;99.48
48636;BME280;34429;52.332;5.614;2022-07-23T11:37:09;101967.19;;;25.04;92.48
48636;BME280;34429;52.332;5.614;2022-07-23T11:39:41;101971.75;;;24.83;93.93
48636;BME280;34429;52.332;5.614;2022-07-23T11:42:10;101970.97;;;24.26;94.90
48636;BME280;34429;52.332;5.614;2022-07-23T11:44:39;101976.91;;;24.30;100.00
48636;BME280;34429;52.332;5.614;2022-07-23T11:47:08;101963.81;;;24.60;87.14
48636;BME280;34429;52.332;5.614;2022-07-23T11:49:37;101965.97;;;25.20;86.61
48636;BME280;34429;52.332;5.614;2022-07-23T11:52:08;101964.41;;;24.97;82.03
48636;BME280;34429;52.332;5.614;2022-07-23T11:54:49;101973.81;;;24.68;89.59
48636;BME280;34429;52.332;5.614;2022-07-23T11:57:18;101966.84;;;24.72;95.31
48636;BME280;34429;52.332;5.614;2022-07-23T11:59:50;101977.50;;;24.89;85.86
48636;BME280;34429;52.332;5.614;2022-07-23T12:02:20;101972.22;;;24.94;86.92
48636;BME280;34429;52.332;5.614;2022-07-23T12:04:50;101971.19;;;24.95;88.95
48636;BME280;34429;52.332;5.614;2022-07-23T12:07:30;101974.44;;;24.70;95.87
48636;BME280;34429;52.332;5.614;2022-07-23T12:10:03;101974.28;;;25.27;96.84
48636;BME280;34429;52.332;5.614;2022-07-23T12:12:36;101970.81;;;25.66;96.83
48636;BME280;34429;52.332;5.614;2022-07-23T12:15:07;101972.47;;;25.54;94.10
48636;BME280;34429;52.332;5.614;2022-07-23T12:17:37;101974.84;;;25.77;86.21
48636;BME280;34429;52.332;5.614;2022-07-23T12:20:12;101975.66;;;25.64;87.83
48636;BME280;34429;52.332;5.614;2022-07-23T12:22:43;101967.63;;;25.76;78.71
48636;BME280;34429;52.332;5.614;2022-07-23T12:25:16;101967.84;;;25.68;77.53
48636;BME280;34429;52.332;5.614;2022-07-23T12:27:45;101966.97;;;25.81;77.39
48636;BME280;34429;52.332;5.614;2022-07-23T12:30:23;101974.53;;;25.32;80.39
48636;BME280;34429;52.332;5.614;2022-07-23T12:32:53;101969.94;;;25.66;76.61
48636;BME280;34429;52.332;5.614;2022-07-23T12:35:22;101970.59;;;25.06;81.83
48636;BME280;34429;52.332;5.614;2022-07-23T12:37:51;101968.00;;;25.46;88.70
48636;BME280;34429;52.332;5.614;2022-07-23T12:40:31;101960.59;;;25.60;80.77
48636;BME280;34429;52.332;5.614;2022-07-23T12:43:01;101949.59;;;26.20;76.31
48636;BME280;34429;52.332;5.614;2022-07-23T12:45:43;101957.06;;;26.27;68.86
48636;BME280;34429;52.332;5.614;2022-07-23T12:48:19;101952.78;;;25.84;73.99
48636;BME280;34429;52.332;5.614;2022-07-23T12:50:50;101951.09;;;26.30;73.15
48636;BME280;34429;52.332;5.614;2022-07-23T12:53:21;101948.75;;;25.86;70.72
48636;BME280;34429;52.332;5.614;2022-07-23T12:55:58;101943.03;;;25.68;75.54
48636;BME280;34429;52.332;5.614;2022-07-23T12:58:39;101961.31;;;26.09;75.83
48636;BME280;34429;52.332;5.614;2022-07-23T13:01:08;101960.41;;;26.22;79.52
48636;BME280;34429;52.332;5.614;2022-07-23T13:03:38;101952.34;;;26.40;82.87
48636;BME280;34429;52.332;5.614;2022-07-23T13:06:09;101942.94;;;26.62;71.59